sensor_id;sensor_type;location;lat;lon;timestamp;temperature;humidity
21039;DHT22;10678;51.002;4.786;2023-12-20T00:02:18;7.20;99.90
21039;DHT22;10678;51.002;4.786;2023-12-20T00:04:44;7.20;99.90
21039;DHT22;10678;51.002;4.786;2023-12-20T00:07:10;7.20;99.90
21039;DHT22;10678;51.002;4.786;2023-12-20T00:09:35;7.20;99.90
21039;DHT22;10678;51.002;4.786;2023-12-20T00:12:01;7.10;99.90
21039;DHT22;10678;51.002;4.786;2023-12-20T00:14:27;7.00;99.90
21039;DHT22;10678;51.002;4.786;2023-12-20T00:16:53;7.00;99.90
21039;DHT22;10678;51.002;4.786;2023-12-20T00:19:19;7.00;99.90
21039;DHT22;10678;51.002;4.786;2023-12-20T00:21:45;7.00;99.90
21039;DHT22;10678;51.002;4.786;2023-12-20T00:24:11;6.90;99.90
21039;DHT22;10678;51.002;4.786;2023-12-20T00:26:36;6.90;99.90
21039;DHT22;10678;51.002;4.786;2023-12-20T00:29:02;7.00;99.90
21039;DHT22;10678;51.002;4.786;2023-12-20T00:31:28;7.00;99.90
21039;DHT22;10678;51.002;4.786;2023-12-20T00:33:53;7.10;99.90
21039;DHT22;10678;51.002;4.786;2023-12-20T00:36:19;7.20;99.90
21039;DHT22;10678;51.002;4.786;2023-12-20T00:38:45;7.10;99.90
21039;DHT22;10678;51.002;4.786;2023-12-20T00:41:11;7.20;99.90
21039;DHT22;10678;51.002;4.786;2023-12-20T00:43:36;7.10;99.90
21039;DHT22;10678;51.002;4.786;2023-12-20T00:46:02;7.00;99.90
21039;DHT22;10678;51.002;4.786;2023-12-20T00:48:28;6.90;99.90
21039;DHT22;10678;51.002;4.786;2023-12-20T00:50:55;6.80;99.90
21039;DHT22;10678;51.002;4.786;2023-12-20T00:53:21;6.70;99.90
21039;DHT22;10678;51.002;4.786;2023-12-20T00:55:46;6.60;99.90
21039;DHT22;10678;51.002;4.786;2023-12-20T00:58:12;6.60;99.90
21039;DHT22;10678;51.002;4.786;2023-12-20T01:00:40;6.60;99.90
21039;DHT22;10678;51.002;4.786;2023-12-20T01:03:07;6.50;99.90
21039;DHT22;10678;51.002;4.786;2023-12-20T01:05:33;6.50;99.90
21039;DHT22;10678;51.002;4.786;2023-12-20T01:07:58;6.50;99.90
21039;DHT22;10678;51.002;4.786;2023-12-20T01:10:24;6.40;99.90
21039;DHT22;10678;51.002;4.786;2023-12-20T01:12:53;6.40;99.90
21039;DHT22;10678;51.002;4.786;2023-12-20T01:15:19;6.40;99.90
21039;DHT22;10678;51.002;4.786;2023-12-20T01:17:44;6.40;99.90
21039;DHT22;10678;51.002;4.786;2023-12-20T01:20:10;6.30;99.90
21039;DHT22;10678;51.002;4.786;2023-12-20T01:22:36;6.30;99.90
21039;DHT22;10678;51.002;4.786;2023-12-20T01:25:02;6.30;99.90
21039;DHT22;10678;51.002;4.786;2023-12-20T01:27:28;6.20;99.90
21039;DHT22;10678;51.002;4.786;2023-12-20T01:29:54;6.20;99.90
21039;DHT22;10678;51.002;4.786;2023-12-20T01:32:19;6.20;99.90
21039;DHT22;10678;51.002;4.786;2023-12-20T01:34:45;6.30;99.90
21039;DHT22;10678;51.002;4.786;2023-12-20T01:37:11;6.20;99.90
21039;DHT22;10678;51.002;4.786;2023-12-20T01:39:36;6.20;99.90
21039;DHT22;10678;51.002;4.786;2023-12-20T01:42:02;6.20;99.90
21039;DHT22;10678;51.002;4.786;2023-12-20T01:44:28;6.20;99.90
21039;DHT22;10678;51.002;4.786;2023-12-20T01:46:53;6.20;99.90
21039;DHT22;10678;51.002;4.786;2023-12-20T01:49:19;6.10;99.90
21039;DHT22;10678;51.002;4.786;2023-12-20T01:51:46;6.10;99.90
21039;DHT22;10678;51.002;4.786;2023-12-20T01:54:12;6.10;99.90
21039;DHT22;10678;51.002;4.786;2023-12-20T01:56:39;6.10;99.90
21039;DHT22;10678;51.002;4.786;2023-12-20T01:59:06;6.10;99.90
21039;DHT22;10678;51.002;4.786;2023-12-20T02:01:33;6.10;99.90
21039;DHT22;10678;51.002;4.786;2023-12-20T02:03:59;6.10;99.90
21039;DHT22;10678;51.002;4.786;2023-12-20T02:06:29;6.10;99.90
21039;DHT22;10678;51.002;4.786;2023-12-20T02:08:55;6.20;99.90
21039;DHT22;10678;51.002;4.786;2023-12-20T02:11:21;6.20;99.90
21039;DHT22;10678;51.002;4.786;2023-12-20T02:13:47;6.10;99.90
21039;DHT22;10678;51.002;4.786;2023-12-20T02:16:12;6.20;99.90
21039;DHT22;10678;51.002;4.786;2023-12-20T02:18:39;6.20;99.90
21039;DHT22;10678;51.002;4.786;2023-12-20T02:21:09;6.10;99.90
21039;DHT22;10678;51.002;4.786;2023-12-20T02:23:35;6.10;99.90
21039;DHT22;10678;51.002;4.786;2023-12-20T02:26:01;6.10;99.90
21039;DHT22;10678;51.002;4.786;2023-12-20T02:28:26;6.10;99.90
21039;DHT22;10678;51.002;4.786;2023-12-20T02:30:53;6.00;99.90
21039;DHT22;10678;51.002;4.786;2023-12-20T02:33:18;6.00;99.90
21039;DHT22;10678;51.002;4.786;2023-12-20T02:35:44;6.10;99.90
21039;DHT22;10678;51.002;4.786;2023-12-20T02:38:11;6.10;99.90
21039;DHT22;10678;51.002;4.786;2023-12-20T02:40:36;6.20;99.90
21039;DHT22;10678;51.002;4.786;2023-12-20T02:43:02;6.30;99.90
21039;DHT22;10678;51.002;4.786;2023-12-20T02:45:28;6.50;99.90
21039;DHT22;10678;51.002;4.786;2023-12-20T02:47:53;6.60;99.90
21039;DHT22;10678;51.002;4.786;2023-12-20T02:50:19;6.60;99.90
21039;DHT22;10678;51.002;4.786;2023-12-20T02:52:45;6.70;99.90
21039;DHT22;10678;51.002;4.786;2023-12-20T02:55:11;6.80;99.90
21039;DHT22;10678;51.002;4.786;2023-12-20T02:57:36;6.80;99.90
21039;DHT22;10678;51.002;4.786;2023-12-20T03:00:08;6.80;99.90
21039;DHT22;10678;51.002;4.786;2023-12-20T03:02:34;6.80;99.90
21039;DHT22;10678;51.002;4.786;2023-12-20T03:05:00;6.80;99.90
21039;DHT22;10678;51.002;4.786;2023-12-20T03:07:26;6.90;99.90
21039;DHT22;10678;51.002;4.786;2023-12-20T03:09:52;6.90;99.90
21039;DHT22;10678;51.002;4.786;2023-12-20T03:12:17;7.00;99.90
21039;DHT22;10678;51.002;4.786;2023-12-20T03:14:44;6.90;99.90
21039;DHT22;10678;51.002;4.786;2023-12-20T03:17:10;6.90;99.90
21039;DHT22;10678;51.002;4.786;2023-12-20T03:19:35;7.00;99.90
21039;DHT22;10678;51.002;4.786;2023-12-20T03:22:01;7.00;99.90
21039;DHT22;10678;51.002;4.786;2023-12-20T03:24:27;7.00;99.90
21039;DHT22;10678;51.002;4.786;2023-12-20T03:26:53;7.00;99.90
21039;DHT22;10678;51.002;4.786;2023-12-20T03:29:18;7.00;99.90
21039;DHT22;10678;51.002;4.786;2023-12-20T03:31:44;7.10;99.90
21039;DHT22;10678;51.002;4.786;2023-12-20T03:34:11;7.20;99.90
21039;DHT22;10678;51.002;4.786;2023-12-20T03:36:36;7.10;99.90
21039;DHT22;10678;51.002;4.786;2023-12-20T03:39:02;7.10;99.90
21039;DHT22;10678;51.002;4.786;2023-12-20T03:41:28;7.10;99.90
21039;DHT22;10678;51.002;4.786;2023-12-20T03:43:54;7.10;99.90
21039;DHT22;10678;51.002;4.786;2023-12-20T03:46:20;7.20;99.90
21039;DHT22;10678;51.002;4.786;2023-12-20T03:48:45;7.20;99.90
21039;DHT22;10678;51.002;4.786;2023-12-20T03:51:11;7.20;99.90
21039;DHT22;10678;51.002;4.786;2023-12-20T03:53:37;7.20;99.90
21039;DHT22;10678;51.002;4.786;2023-12-20T03:56:03;7.30;99.90
21039;DHT22;10678;51.002;4.786;2023-12-20T03:58:29;7.40;99.90
21039;DHT22;10678;51.002;4.786;2023-12-20T04:00:55;7.20;99.90
21039;DHT22;10678;51.002;4.786;2023-12-20T04:03:20;7.30;99.90
21039;DHT22;10678;51.002;4.786;2023-12-20T04:05:46;7.20;99.90
21039;DHT22;10678;51.002;4.786;2023-12-20T04:08:12;7.30;99.90
21039;DHT22;10678;51.002;4.786;2023-12-20T04:10:37;7.30;99.90
21039;DHT22;10678;51.002;4.786;2023-12-20T04:13:04;7.40;99.90
21039;DHT22;10678;51.002;4.786;2023-12-20T04:15:29;7.40;99.90
21039;DHT22;10678;51.002;4.786;2023-12-20T04:17:55;7.40;99.90
21039;DHT22;10678;51.002;4.786;2023-12-20T04:20:21;7.30;99.90
21039;DHT22;10678;51.002;4.786;2023-12-20T04:22:46;7.20;99.90
21039;DHT22;10678;51.002;4.786;2023-12-20T04:25:12;7.10;99.90
21039;DHT22;10678;51.002;4.786;2023-12-20T04:27:37;6.90;99.90
21039;DHT22;10678;51.002;4.786;2023-12-20T04:30:03;6.90;99.90
21039;DHT22;10678;51.002;4.786;2023-12-20T04:32:29;6.90;99.90
21039;DHT22;10678;51.002;4.786;2023-12-20T04:34:55;6.80;99.90
21039;DHT22;10678;51.002;4.786;2023-12-20T04:37:20;6.90;99.90
21039;DHT22;10678;51.002;4.786;2023-12-20T04:39:46;6.80;99.90
21039;DHT22;10678;51.002;4.786;2023-12-20T04:42:12;6.80;99.90
21039;DHT22;10678;51.002;4.786;2023-12-20T04:44:37;6.80;99.90
21039;DHT22;10678;51.002;4.786;2023-12-20T04:47:03;6.90;99.90
21039;DHT22;10678;51.002;4.786;2023-12-20T04:49:29;6.90;99.90
21039;DHT22;10678;51.002;4.786;2023-12-20T04:51:54;6.80;99.90
21039;DHT22;10678;51.002;4.786;2023-12-20T04:54:21;6.80;99.90
21039;DHT22;10678;51.002;4.786;2023-12-20T04:56:46;6.80;99.90
21039;DHT22;10678;51.002;4.786;2023-12-20T04:59:12;6.70;99.90
21039;DHT22;10678;51.002;4.786;2023-12-20T05:01:39;6.70;99.90
21039;DHT22;10678;51.002;4.786;2023-12-20T05:04:04;6.80;99.90
21039;DHT22;10678;51.002;4.786;2023-12-20T05:06:30;6.70;99.90
21039;DHT22;10678;51.002;4.786;2023-12-20T05:08:55;6.60;99.90
21039;DHT22;10678;51.002;4.786;2023-12-20T05:11:21;6.60;99.90
21039;DHT22;10678;51.002;4.786;2023-12-20T05:13:47;6.70;99.90
21039;DHT22;10678;51.002;4.786;2023-12-20T05:16:13;6.80;99.90
21039;DHT22;10678;51.002;4.786;2023-12-20T05:18:40;6.90;99.90
21039;DHT22;10678;51.002;4.786;2023-12-20T05:21:05;7.00;99.90
21039;DHT22;10678;51.002;4.786;2023-12-20T05:23:31;6.90;99.90
21039;DHT22;10678;51.002;4.786;2023-12-20T05:25:57;6.70;99.90
21039;DHT22;10678;51.002;4.786;2023-12-20T05:28:22;6.60;99.90
21039;DHT22;10678;51.002;4.786;2023-12-20T05:30:48;6.60;99.90
21039;DHT22;10678;51.002;4.786;2023-12-20T05:33:14;6.60;99.90
21039;DHT22;10678;51.002;4.786;2023-12-20T05:35:39;6.50;99.90
21039;DHT22;10678;51.002;4.786;2023-12-20T05:38:05;6.50;99.90
21039;DHT22;10678;51.002;4.786;2023-12-20T05:40:31;6.50;99.90
21039;DHT22;10678;51.002;4.786;2023-12-20T05:42:57;6.50;99.90
21039;DHT22;10678;51.002;4.786;2023-12-20T05:45:22;6.60;99.90
21039;DHT22;10678;51.002;4.786;2023-12-20T05:47:48;6.50;99.90
21039;DHT22;10678;51.002;4.786;2023-12-20T05:50:13;6.60;99.90
21039;DHT22;10678;51.002;4.786;2023-12-20T05:52:39;6.50;99.90
21039;DHT22;10678;51.002;4.786;2023-12-20T05:55:05;6.40;99.90
21039;DHT22;10678;51.002;4.786;2023-12-20T05:57:31;6.40;99.90
21039;DHT22;10678;51.002;4.786;2023-12-20T05:59:56;6.50;99.90
21039;DHT22;10678;51.002;4.786;2023-12-20T06:02:22;6.30;99.90
21039;DHT22;10678;51.002;4.786;2023-12-20T06:04:47;6.40;99.90
21039;DHT22;10678;51.002;4.786;2023-12-20T06:07:13;6.30;99.90
21039;DHT22;10678;51.002;4.786;2023-12-20T06:09:39;6.30;99.90
21039;DHT22;10678;51.002;4.786;2023-12-20T06:12:05;6.40;99.90
21039;DHT22;10678;51.002;4.786;2023-12-20T06:14:31;6.30;99.90
21039;DHT22;10678;51.002;4.786;2023-12-20T06:16:57;6.30;99.90
21039;DHT22;10678;51.002;4.786;2023-12-20T06:19:23;6.40;99.90
21039;DHT22;10678;51.002;4.786;2023-12-20T06:21:48;6.40;99.90
21039;DHT22;10678;51.002;4.786;2023-12-20T06:24:14;6.30;99.90
21039;DHT22;10678;51.002;4.786;2023-12-20T06:26:40;6.30;99.90
21039;DHT22;10678;51.002;4.786;2023-12-20T06:29:05;6.40;99.90
21039;DHT22;10678;51.002;4.786;2023-12-20T06:31:31;6.50;99.90
21039;DHT22;10678;51.002;4.786;2023-12-20T06:33:58;6.50;99.90
21039;DHT22;10678;51.002;4.786;2023-12-20T06:36:25;6.50;99.90
21039;DHT22;10678;51.002;4.786;2023-12-20T06:38:51;6.50;99.90
21039;DHT22;10678;51.002;4.786;2023-12-20T06:41:17;6.60;99.90
21039;DHT22;10678;51.002;4.786;2023-12-20T06:43:43;6.70;99.90
21039;DHT22;10678;51.002;4.786;2023-12-20T06:46:09;6.70;99.90
21039;DHT22;10678;51.002;4.786;2023-12-20T06:48:35;6.80;99.90
21039;DHT22;10678;51.002;4.786;2023-12-20T06:51:01;6.80;99.90
21039;DHT22;10678;51.002;4.786;2023-12-20T06:53:30;6.70;99.90
21039;DHT22;10678;51.002;4.786;2023-12-20T06:55:55;6.80;99.90
21039;DHT22;10678;51.002;4.786;2023-12-20T06:58:24;6.80;99.90
21039;DHT22;10678;51.002;4.786;2023-12-20T07:00:50;6.70;99.90
21039;DHT22;10678;51.002;4.786;2023-12-20T07:03:17;6.70;99.90
21039;DHT22;10678;51.002;4.786;2023-12-20T07:05:43;6.50;99.90
21039;DHT22;10678;51.002;4.786;2023-12-20T07:08:09;6.50;99.90
21039;DHT22;10678;51.002;4.786;2023-12-20T07:10:34;6.50;99.90
21039;DHT22;10678;51.002;4.786;2023-12-20T07:13:00;6.40;99.90
21039;DHT22;10678;51.002;4.786;2023-12-20T07:15:25;6.30;99.90
21039;DHT22;10678;51.002;4.786;2023-12-20T07:17:52;6.20;99.90
21039;DHT22;10678;51.002;4.786;2023-12-20T07:20:17;6.20;99.90
21039;DHT22;10678;51.002;4.786;2023-12-20T07:22:43;6.30;99.90
21039;DHT22;10678;51.002;4.786;2023-12-20T07:25:09;6.30;99.90
21039;DHT22;10678;51.002;4.786;2023-12-20T07:27:34;6.20;99.90
21039;DHT22;10678;51.002;4.786;2023-12-20T07:30:00;6.10;99.90
21039;DHT22;10678;51.002;4.786;2023-12-20T07:32:26;6.20;99.90
21039;DHT22;10678;51.002;4.786;2023-12-20T07:34:52;6.20;99.90
21039;DHT22;10678;51.002;4.786;2023-12-20T07:37:19;6.20;99.90
21039;DHT22;10678;51.002;4.786;2023-12-20T07:39:44;6.20;99.90
21039;DHT22;10678;51.002;4.786;2023-12-20T07:42:10;6.20;99.90
21039;DHT22;10678;51.002;4.786;2023-12-20T07:44:36;6.20;99.90
21039;DHT22;10678;51.002;4.786;2023-12-20T07:47:02;6.20;99.90
21039;DHT22;10678;51.002;4.786;2023-12-20T07:49:27;6.20;99.90
21039;DHT22;10678;51.002;4.786;2023-12-20T07:51:53;6.20;99.90
21039;DHT22;10678;51.002;4.786;2023-12-20T07:54:19;6.40;99.90
21039;DHT22;10678;51.002;4.786;2023-12-20T07:56:46;6.30;99.90
21039;DHT22;10678;51.002;4.786;2023-12-20T07:59:11;6.10;99.90
21039;DHT22;10678;51.002;4.786;2023-12-20T08:01:37;6.20;99.90
21039;DHT22;10678;51.002;4.786;2023-12-20T08:04:03;6.30;99.90
21039;DHT22;10678;51.002;4.786;2023-12-20T08:06:28;6.40;99.90
21039;DHT22;10678;51.002;4.786;2023-12-20T08:08:54;6.30;99.90
21039;DHT22;10678;51.002;4.786;2023-12-20T08:11:20;6.20;99.90
21039;DHT22;10678;51.002;4.786;2023-12-20T08:13:45;6.20;99.90
21039;DHT22;10678;51.002;4.786;2023-12-20T08:16:11;6.20;99.90
21039;DHT22;10678;51.002;4.786;2023-12-20T08:18:39;6.20;99.90
21039;DHT22;10678;51.002;4.786;2023-12-20T08:21:04;6.30;99.90
21039;DHT22;10678;51.002;4.786;2023-12-20T08:23:33;6.30;99.90
21039;DHT22;10678;51.002;4.786;2023-12-20T08:25:58;6.30;99.90
21039;DHT22;10678;51.002;4.786;2023-12-20T08:28:28;6.40;99.90
21039;DHT22;10678;51.002;4.786;2023-12-20T08:30:54;6.50;99.90
21039;DHT22;10678;51.002;4.786;2023-12-20T08:33:20;6.60;99.90
21039;DHT22;10678;51.002;4.786;2023-12-20T08:35:45;6.70;99.90
21039;DHT22;10678;51.002;4.786;2023-12-20T08:38:11;6.90;99.90
21039;DHT22;10678;51.002;4.786;2023-12-20T08:40:37;7.00;99.90
21039;DHT22;10678;51.002;4.786;2023-12-20T08:43:03;7.10;99.90
21039;DHT22;10678;51.002;4.786;2023-12-20T08:45:29;7.30;99.90
21039;DHT22;10678;51.002;4.786;2023-12-20T08:47:55;7.30;99.90
21039;DHT22;10678;51.002;4.786;2023-12-20T08:50:20;7.30;99.90
21039;DHT22;10678;51.002;4.786;2023-12-20T08:52:46;7.20;99.90
21039;DHT22;10678;51.002;4.786;2023-12-20T08:55:12;7.10;99.90
21039;DHT22;10678;51.002;4.786;2023-12-20T08:57:38;7.10;99.90
21039;DHT22;10678;51.002;4.786;2023-12-20T09:00:04;7.10;99.90
21039;DHT22;10678;51.002;4.786;2023-12-20T09:02:33;7.00;99.90
21039;DHT22;10678;51.002;4.786;2023-12-20T09:05:01;7.00;99.90
21039;DHT22;10678;51.002;4.786;2023-12-20T09:07:27;7.30;99.90
21039;DHT22;10678;51.002;4.786;2023-12-20T09:09:56;7.20;99.90
21039;DHT22;10678;51.002;4.786;2023-12-20T09:12:22;7.30;99.90
21039;DHT22;10678;51.002;4.786;2023-12-20T09:14:49;7.30;99.90
21039;DHT22;10678;51.002;4.786;2023-12-20T09:17:15;7.30;99.90
21039;DHT22;10678;51.002;4.786;2023-12-20T09:19:42;7.30;99.90
21039;DHT22;10678;51.002;4.786;2023-12-20T09:22:09;7.20;99.90
21039;DHT22;10678;51.002;4.786;2023-12-20T09:24:35;7.40;99.90
21039;DHT22;10678;51.002;4.786;2023-12-20T09:27:00;7.50;99.90
21039;DHT22;10678;51.002;4.786;2023-12-20T09:29:26;7.70;99.90
21039;DHT22;10678;51.002;4.786;2023-12-20T09:31:52;7.80;99.90
21039;DHT22;10678;51.002;4.786;2023-12-20T09:34:17;7.80;99.90
21039;DHT22;10678;51.002;4.786;2023-12-20T09:36:43;7.80;99.90
21039;DHT22;10678;51.002;4.786;2023-12-20T09:39:18;7.90;99.90
21039;DHT22;10678;51.002;4.786;2023-12-20T09:42:05;7.80;99.90
21039;DHT22;10678;51.002;4.786;2023-12-20T09:44:32;8.00;99.90
21039;DHT22;10678;51.002;4.786;2023-12-20T09:47:03;8.40;99.90
21039;DHT22;10678;51.002;4.786;2023-12-20T09:49:29;8.50;99.90
21039;DHT22;10678;51.002;4.786;2023-12-20T09:51:56;8.70;99.90
21039;DHT22;10678;51.002;4.786;2023-12-20T09:54:22;8.40;99.90
21039;DHT22;10678;51.002;4.786;2023-12-20T09:56:48;8.20;99.90
21039;DHT22;10678;51.002;4.786;2023-12-20T09:59:14;8.30;99.90
21039;DHT22;10678;51.002;4.786;2023-12-20T10:01:41;8.30;99.90
21039;DHT22;10678;51.002;4.786;2023-12-20T10:04:09;8.20;99.90
21039;DHT22;10678;51.002;4.786;2023-12-20T10:06:44;8.40;99.90
21039;DHT22;10678;51.002;4.786;2023-12-20T10:09:10;8.70;99.90
21039;DHT22;10678;51.002;4.786;2023-12-20T10:11:37;8.80;99.90
21039;DHT22;10678;51.002;4.786;2023-12-20T10:14:03;8.90;99.90
21039;DHT22;10678;51.002;4.786;2023-12-20T10:16:29;9.00;99.90
21039;DHT22;10678;51.002;4.786;2023-12-20T10:18:56;8.90;99.90
21039;DHT22;10678;51.002;4.786;2023-12-20T10:21:25;9.00;99.90
21039;DHT22;10678;51.002;4.786;2023-12-20T10:23:55;9.20;99.90
21039;DHT22;10678;51.002;4.786;2023-12-20T10:26:22;9.40;99.90
21039;DHT22;10678;51.002;4.786;2023-12-20T10:28:53;9.60;99.90
21039;DHT22;10678;51.002;4.786;2023-12-20T10:31:32;9.60;99.90
21039;DHT22;10678;51.002;4.786;2023-12-20T10:34:00;9.60;99.90
21039;DHT22;10678;51.002;4.786;2023-12-20T10:36:29;9.60;99.90
21039;DHT22;10678;51.002;4.786;2023-12-20T10:38:56;9.50;99.90
21039;DHT22;10678;51.002;4.786;2023-12-20T10:41:33;9.70;99.90
21039;DHT22;10678;51.002;4.786;2023-12-20T10:44:00;9.60;99.90
21039;DHT22;10678;51.002;4.786;2023-12-20T10:46:27;9.80;99.90
21039;DHT22;10678;51.002;4.786;2023-12-20T10:48:57;10.00;99.90
21039;DHT22;10678;51.002;4.786;2023-12-20T10:51:24;10.00;99.90
21039;DHT22;10678;51.002;4.786;2023-12-20T10:53:53;9.90;99.90
21039;DHT22;10678;51.002;4.786;2023-12-20T10:56:19;9.80;99.90
21039;DHT22;10678;51.002;4.786;2023-12-20T10:58:45;9.90;99.90
21039;DHT22;10678;51.002;4.786;2023-12-20T11:01:16;9.90;99.90
21039;DHT22;10678;51.002;4.786;2023-12-20T11:03:51;10.00;99.90
21039;DHT22;10678;51.002;4.786;2023-12-20T11:14:19;10.50;99.90
21039;DHT22;10678;51.002;4.786;2023-12-20T11:16:45;10.20;99.90
21039;DHT22;10678;51.002;4.786;2023-12-20T11:19:11;10.10;99.90
21039;DHT22;10678;51.002;4.786;2023-12-20T11:21:40;9.90;99.90
21039;DHT22;10678;51.002;4.786;2023-12-20T11:24:05;9.80;99.90
21039;DHT22;10678;51.002;4.786;2023-12-20T11:26:31;10.00;99.90
21039;DHT22;10678;51.002;4.786;2023-12-20T11:29:35;10.00;99.90
21039;DHT22;10678;51.002;4.786;2023-12-20T11:34:58;9.70;99.90
21039;DHT22;10678;51.002;4.786;2023-12-20T11:37:37;9.50;99.90
21039;DHT22;10678;51.002;4.786;2023-12-20T11:40:05;9.40;99.90
21039;DHT22;10678;51.002;4.786;2023-12-20T11:42:33;9.40;99.90
21039;DHT22;10678;51.002;4.786;2023-12-20T11:45:03;9.40;99.90
21039;DHT22;10678;51.002;4.786;2023-12-20T11:47:30;9.50;99.90
21039;DHT22;10678;51.002;4.786;2023-12-20T11:49:56;9.50;99.90
21039;DHT22;10678;51.002;4.786;2023-12-20T11:52:22;9.70;99.90
21039;DHT22;10678;51.002;4.786;2023-12-20T11:54:48;9.60;99.90
21039;DHT22;10678;51.002;4.786;2023-12-20T11:57:14;9.60;99.90
21039;DHT22;10678;51.002;4.786;2023-12-20T11:59:40;9.60;99.90
21039;DHT22;10678;51.002;4.786;2023-12-20T12:02:06;9.40;99.90
21039;DHT22;10678;51.002;4.786;2023-12-20T12:04:31;9.30;99.90
21039;DHT22;10678;51.002;4.786;2023-12-20T12:06:57;9.40;99.90
21039;DHT22;10678;51.002;4.786;2023-12-20T12:09:23;9.40;99.90
21039;DHT22;10678;51.002;4.786;2023-12-20T12:11:49;9.50;99.90
21039;DHT22;10678;51.002;4.786;2023-12-20T12:14:14;9.50;99.90
21039;DHT22;10678;51.002;4.786;2023-12-20T12:16:42;9.60;99.90
21039;DHT22;10678;51.002;4.786;2023-12-20T12:19:20;9.70;99.90
21039;DHT22;10678;51.002;4.786;2023-12-20T12:21:46;9.70;99.90
21039;DHT22;10678;51.002;4.786;2023-12-20T12:24:12;9.60;99.90
21039;DHT22;10678;51.002;4.786;2023-12-20T12:26:38;9.60;99.90
21039;DHT22;10678;51.002;4.786;2023-12-20T12:29:03;9.60;99.90
21039;DHT22;10678;51.002;4.786;2023-12-20T12:31:32;9.80;99.90
21039;DHT22;10678;51.002;4.786;2023-12-20T12:33:57;9.80;99.90
21039;DHT22;10678;51.002;4.786;2023-12-20T12:36:23;9.90;99.90
21039;DHT22;10678;51.002;4.786;2023-12-20T12:38:49;9.90;99.90
21039;DHT22;10678;51.002;4.786;2023-12-20T12:41:15;9.90;99.90
21039;DHT22;10678;51.002;4.786;2023-12-20T12:43:41;9.80;99.90
21039;DHT22;10678;51.002;4.786;2023-12-20T12:46:07;9.90;99.90
21039;DHT22;10678;51.002;4.786;2023-12-20T12:48:33;9.90;99.90
21039;DHT22;10678;51.002;4.786;2023-12-20T12:50:59;10.00;99.90
21039;DHT22;10678;51.002;4.786;2023-12-20T12:53:26;9.90;99.90
21039;DHT22;10678;51.002;4.786;2023-12-20T12:55:52;10.20;99.90
21039;DHT22;10678;51.002;4.786;2023-12-20T12:58:19;10.20;99.90
21039;DHT22;10678;51.002;4.786;2023-12-20T13:00:45;10.20;99.90
21039;DHT22;10678;51.002;4.786;2023-12-20T13:03:10;10.20;99.90
21039;DHT22;10678;51.002;4.786;2023-12-20T13:05:36;10.10;99.90
21039;DHT22;10678;51.002;4.786;2023-12-20T13:08:03;10.00;99.90
21039;DHT22;10678;51.002;4.786;2023-12-20T13:10:29;10.10;99.90
21039;DHT22;10678;51.002;4.786;2023-12-20T13:12:54;10.10;99.90
21039;DHT22;10678;51.002;4.786;2023-12-20T13:15:20;10.00;99.90
21039;DHT22;10678;51.002;4.786;2023-12-20T13:17:46;10.00;99.90
21039;DHT22;10678;51.002;4.786;2023-12-20T13:20:12;10.00;99.90
21039;DHT22;10678;51.002;4.786;2023-12-20T13:22:37;10.10;99.90
21039;DHT22;10678;51.002;4.786;2023-12-20T13:25:03;10.10;99.90
21039;DHT22;10678;51.002;4.786;2023-12-20T13:27:29;10.10;99.90
21039;DHT22;10678;51.002;4.786;2023-12-20T13:29:54;10.30;99.90
21039;DHT22;10678;51.002;4.786;2023-12-20T13:32:20;10.40;99.90
21039;DHT22;10678;51.002;4.786;2023-12-20T13:34:46;10.50;99.90
21039;DHT22;10678;51.002;4.786;2023-12-20T13:37:12;10.40;99.90
21039;DHT22;10678;51.002;4.786;2023-12-20T13:39:37;10.40;99.90
21039;DHT22;10678;51.002;4.786;2023-12-20T13:42:03;10.30;99.90
21039;DHT22;10678;51.002;4.786;2023-12-20T13:44:29;10.20;99.90
21039;DHT22;10678;51.002;4.786;2023-12-20T13:46:56;10.20;99.90
21039;DHT22;10678;51.002;4.786;2023-12-20T13:49:21;9.90;99.90
21039;DHT22;10678;51.002;4.786;2023-12-20T13:51:50;9.90;99.90
21039;DHT22;10678;51.002;4.786;2023-12-20T13:54:16;10.00;99.90
21039;DHT22;10678;51.002;4.786;2023-12-20T13:56:45;10.10;99.90
21039;DHT22;10678;51.002;4.786;2023-12-20T13:59:10;10.20;99.90
21039;DHT22;10678;51.002;4.786;2023-12-20T14:01:38;10.20;99.90
21039;DHT22;10678;51.002;4.786;2023-12-20T14:04:03;10.20;99.90
21039;DHT22;10678;51.002;4.786;2023-12-20T14:06:29;10.20;99.90
21039;DHT22;10678;51.002;4.786;2023-12-20T14:08:55;10.20;99.90
21039;DHT22;10678;51.002;4.786;2023-12-20T14:11:21;10.10;99.90
21039;DHT22;10678;51.002;4.786;2023-12-20T14:13:46;10.00;99.90
21039;DHT22;10678;51.002;4.786;2023-12-20T14:16:12;10.00;99.90
21039;DHT22;10678;51.002;4.786;2023-12-20T14:18:38;10.10;99.90
21039;DHT22;10678;51.002;4.786;2023-12-20T14:21:05;10.00;99.90
21039;DHT22;10678;51.002;4.786;2023-12-20T14:23:31;9.90;99.90
21039;DHT22;10678;51.002;4.786;2023-12-20T14:25:59;9.90;99.90
21039;DHT22;10678;51.002;4.786;2023-12-20T14:28:25;10.10;99.90
21039;DHT22;10678;51.002;4.786;2023-12-20T14:30:51;10.10;99.90
21039;DHT22;10678;51.002;4.786;2023-12-20T14:33:16;10.10;99.90
21039;DHT22;10678;51.002;4.786;2023-12-20T14:35:42;10.10;99.90
21039;DHT22;10678;51.002;4.786;2023-12-20T14:38:09;10.20;99.90
21039;DHT22;10678;51.002;4.786;2023-12-20T14:40:35;10.40;99.90
21039;DHT22;10678;51.002;4.786;2023-12-20T14:43:01;10.40;99.90
21039;DHT22;10678;51.002;4.786;2023-12-20T14:45:29;10.30;99.90
21039;DHT22;10678;51.002;4.786;2023-12-20T14:47:55;10.30;99.90
21039;DHT22;10678;51.002;4.786;2023-12-20T14:50:21;10.30;99.90
21039;DHT22;10678;51.002;4.786;2023-12-20T14:52:47;10.30;99.90
21039;DHT22;10678;51.002;4.786;2023-12-20T14:55:13;10.30;99.90
21039;DHT22;10678;51.002;4.786;2023-12-20T14:57:38;10.20;99.90
21039;DHT22;10678;51.002;4.786;2023-12-20T15:00:05;10.30;99.90
21039;DHT22;10678;51.002;4.786;2023-12-20T15:02:30;10.30;99.90
21039;DHT22;10678;51.002;4.786;2023-12-20T15:04:57;10.30;99.90
21039;DHT22;10678;51.002;4.786;2023-12-20T15:07:22;10.20;99.90
21039;DHT22;10678;51.002;4.786;2023-12-20T15:09:48;10.20;99.90
21039;DHT22;10678;51.002;4.786;2023-12-20T15:12:14;10.10;99.90
21039;DHT22;10678;51.002;4.786;2023-12-20T15:14:40;10.20;99.90
21039;DHT22;10678;51.002;4.786;2023-12-20T15:17:06;10.20;99.90
21039;DHT22;10678;51.002;4.786;2023-12-20T15:19:31;10.20;99.90
21039;DHT22;10678;51.002;4.786;2023-12-20T15:21:57;10.10;99.90
21039;DHT22;10678;51.002;4.786;2023-12-20T15:24:24;10.00;99.90
21039;DHT22;10678;51.002;4.786;2023-12-20T15:26:54;10.00;99.90
21039;DHT22;10678;51.002;4.786;2023-12-20T15:29:21;10.00;99.90
21039;DHT22;10678;51.002;4.786;2023-12-20T15:31:47;9.90;99.90
21039;DHT22;10678;51.002;4.786;2023-12-20T15:34:14;9.90;99.90
21039;DHT22;10678;51.002;4.786;2023-12-20T15:36:40;9.90;99.90
21039;DHT22;10678;51.002;4.786;2023-12-20T15:39:06;9.90;99.90
21039;DHT22;10678;51.002;4.786;2023-12-20T15:41:34;9.90;99.90
21039;DHT22;10678;51.002;4.786;2023-12-20T15:44:00;10.00;99.90
21039;DHT22;10678;51.002;4.786;2023-12-20T15:46:25;10.00;99.90
21039;DHT22;10678;51.002;4.786;2023-12-20T15:48:51;9.90;99.90